Mill River @ Northampton, Ma

Mill River at Northampton, Ma
 Total Drainage Area: 53 sq. miles 
 Drainage Area Controlled by Corps Dams: 0 sq. miles (0%) 
 Warning Flow/Stage: 975 cfs / 9.0 feet 
 Flood Flow/Stage: 1,550 cfs / 10.0 feet 
Date Time
(Eastern)
Stage
(ft)
Flow
(cfs)
CSM
(cfs / sq. mi.)
Jan-31 03:15 pm 6.76 160 3.0
Jan-31 02:15 pm 6.77 162 3.1
Jan-31 01:15 pm 6.78 164 3.1
Jan-31 12:15 pm 6.78 164 3.1
Jan-31 11:15 am 6.79 166 3.2
Jan-31 10:15 am 6.79 166 3.2
Jan-31 09:15 am 6.80 167 3.2
Jan-31 08:15 am 6.80 167 3.2
Jan-31 07:15 am 6.80 167 3.2
Jan-31 06:15 am 6.81 169 3.2
Jan-31 05:15 am 6.82 171 3.3
Jan-31 04:15 am 6.80 167 3.2
Jan-31 03:15 am 6.82 171 3.3
Jan-31 02:15 am 6.80 167 3.2
Jan-31 01:15 am 6.80 167 3.2
Jan-31 12:15 am 6.80 167 3.2
Jan-30 11:15 pm 6.80 167 3.2
Jan-30 10:15 pm 6.79 166 3.2
Jan-30 09:15 pm 6.78 164 3.1
Jan-30 08:15 pm 6.77 162 3.1
Jan-30 07:15 pm 6.78 164 3.1
Jan-30 06:15 pm 6.76 160 3.0
Jan-30 05:15 pm 6.77 162 3.1
Jan-30 04:15 pm 6.77 162 3.1
Jan-30 03:15 pm 6.77 162 3.1
Report Generated January 31, 2023 03:28 pm